createdAt,value
2022-12-26T00:00:52.995Z,11.92
2022-12-26T00:03:19.473Z,12.48
2022-12-26T00:05:45.862Z,12.48
2022-12-26T00:08:12.304Z,12.51
2022-12-26T00:10:38.755Z,12.24
2022-12-26T00:13:39.268Z,12.07
2022-12-26T00:15:52.034Z,12.42
2022-12-26T00:18:18.515Z,12.35
2022-12-26T00:20:44.886Z,11.93
2022-12-26T00:23:11.211Z,11.61
2022-12-26T00:25:37.603Z,12.06
2022-12-26T00:28:04.175Z,11.84
2022-12-26T00:30:30.501Z,12.14
2022-12-26T00:32:56.909Z,11.96
2022-12-26T00:35:23.407Z,11.80
2022-12-26T00:37:50.182Z,11.68
2022-12-26T00:40:17.185Z,11.60
2022-12-26T00:42:43.609Z,11.66
2022-12-26T00:45:10.360Z,11.96
2022-12-26T00:47:37.102Z,11.81
2022-12-26T00:50:13.127Z,11.70
2022-12-26T00:52:41.587Z,11.65
2022-12-26T00:55:08.581Z,12.20
2022-12-26T00:57:34.893Z,12.29
2022-12-26T01:00:01.219Z,12.31
2022-12-26T01:02:28.132Z,12.34
2022-12-26T01:04:54.939Z,12.33
2022-12-26T01:07:21.463Z,12.15
2022-12-26T01:09:47.812Z,11.87
2022-12-26T01:12:14.134Z,11.85
2022-12-26T01:14:40.449Z,12.30
2022-12-26T01:17:06.861Z,12.47
2022-12-26T01:19:33.179Z,12.10
2022-12-26T01:21:59.562Z,12.39
2022-12-26T01:24:25.876Z,12.51
2022-12-26T01:26:52.340Z,12.37
2022-12-26T01:29:18.816Z,12.30
2022-12-26T01:31:45.214Z,12.26
2022-12-26T01:34:11.747Z,12.43
2022-12-26T01:36:38.150Z,12.13
2022-12-26T01:39:04.483Z,12.23
2022-12-26T01:41:30.897Z,11.92
2022-12-26T01:43:58.777Z,12.08
2022-12-26T01:46:38.151Z,12.13
2022-12-26T01:49:22.664Z,12.15
2022-12-26T01:51:55.124Z,11.91
2022-12-26T01:54:39.203Z,12.24
2022-12-26T01:57:16.679Z,12.35
2022-12-26T01:59:44.384Z,12.75
2022-12-26T02:02:11.340Z,12.74
2022-12-26T02:04:43.754Z,12.82
2022-12-26T02:07:10.383Z,12.40
2022-12-26T02:09:37.643Z,12.27
2022-12-26T02:12:36.387Z,11.94
2022-12-26T02:15:02.897Z,12.14
2022-12-26T02:17:30.453Z,11.89
2022-12-26T02:20:12.630Z,12.21
2022-12-26T02:23:05.543Z,12.18
2022-12-26T02:25:40.872Z,12.60
2022-12-26T02:28:45.134Z,12.17
2022-12-26T02:31:19.395Z,12.06
2022-12-26T02:34:01.051Z,12.02
2022-12-26T02:36:44.433Z,12.19
2022-12-26T02:39:45.016Z,12.06
2022-12-26T02:42:34.678Z,11.99
2022-12-26T02:45:25.857Z,11.97
2022-12-26T02:48:34.839Z,12.52
2022-12-26T02:51:20.353Z,12.50
2022-12-26T02:54:25.901Z,12.89
2022-12-26T02:56:59.683Z,12.70
2022-12-26T02:59:58.834Z,12.89
2022-12-26T03:02:31.326Z,12.87
2022-12-26T03:04:58.770Z,13.14
2022-12-26T03:07:29.802Z,13.17
2022-12-26T03:09:58.064Z,12.92
2022-12-26T03:12:47.286Z,12.93
2022-12-26T03:15:17.937Z,12.83
2022-12-26T03:17:49.730Z,12.72
2022-12-26T03:20:18.174Z,13.03
2022-12-26T03:23:01.902Z,13.33
2022-12-26T03:25:40.762Z,12.93
2022-12-26T03:28:08.220Z,12.94
2022-12-26T03:30:35.192Z,13.08
2022-12-26T03:33:01.972Z,13.31
2022-12-26T03:35:32.612Z,13.28
2022-12-26T03:38:08.023Z,13.08
2022-12-26T03:40:57.182Z,13.20
2022-12-26T03:43:36.598Z,13.12
2022-12-26T03:46:21.821Z,12.79
2022-12-26T03:48:57.071Z,13.27
2022-12-26T03:51:42.606Z,12.79
2022-12-26T03:54:19.125Z,13.27
2022-12-26T03:56:52.749Z,13.12
2022-12-26T03:59:55.731Z,13.39
2022-12-26T04:02:24.118Z,13.43
2022-12-26T04:04:54.211Z,13.36
2022-12-26T04:07:26.540Z,13.28
2022-12-26T04:10:20.977Z,13.29
2022-12-26T04:12:50.201Z,13.01
2022-12-26T04:15:22.880Z,13.19
2022-12-26T04:17:58.395Z,13.53
2022-12-26T04:20:38.043Z,13.40
2022-12-26T04:23:16.620Z,13.42
2022-12-26T04:25:53.602Z,13.48
2022-12-26T04:28:21.930Z,13.26
2022-12-26T04:30:56.588Z,13.49
2022-12-26T04:33:39.083Z,13.36
2022-12-26T04:36:12.451Z,13.66
2022-12-26T04:38:47.772Z,13.50
2022-12-26T04:41:15.863Z,13.28
2022-12-26T04:43:48.604Z,13.22
2022-12-26T04:46:20.992Z,13.46
2022-12-26T04:48:49.665Z,13.08
2022-12-26T04:51:16.067Z,13.11
2022-12-26T04:53:42.415Z,13.63
2022-12-26T04:56:10.498Z,13.46
2022-12-26T04:58:37.139Z,13.09
2022-12-26T05:01:03.625Z,13.18
2022-12-26T05:03:30.037Z,12.97
2022-12-26T05:05:56.521Z,12.90
2022-12-26T05:08:27.291Z,12.71
2022-12-26T05:10:53.620Z,13.24
2022-12-26T05:13:20.004Z,13.26
2022-12-26T05:15:46.335Z,13.14
2022-12-26T05:18:12.834Z,13.10
2022-12-26T05:20:40.142Z,12.98
2022-12-26T05:23:16.353Z,12.95
2022-12-26T05:25:44.474Z,12.92
2022-12-26T05:28:12.500Z,13.46
2022-12-26T05:30:38.924Z,13.32
2022-12-26T05:33:05.524Z,13.11
2022-12-26T05:35:32.681Z,12.91
2022-12-26T05:37:58.982Z,13.17
2022-12-26T05:40:25.340Z,13.34
2022-12-26T05:42:51.673Z,13.09
2022-12-26T05:45:18.001Z,13.05
2022-12-26T05:47:48.344Z,13.21
2022-12-26T05:50:18.042Z,13.37
2022-12-26T05:52:44.494Z,13.52
2022-12-26T05:55:10.857Z,13.51
2022-12-26T05:57:37.258Z,13.39
2022-12-26T06:00:04.279Z,13.26
2022-12-26T06:02:30.754Z,12.85
2022-12-26T06:04:57.285Z,13.43
2022-12-26T06:07:23.702Z,13.25
2022-12-26T06:09:49.998Z,12.73
2022-12-26T06:12:16.296Z,13.07
2022-12-26T06:14:42.676Z,13.03
2022-12-26T06:17:09.070Z,13.03
2022-12-26T06:19:35.396Z,13.24
2022-12-26T06:22:01.803Z,13.19
2022-12-26T06:24:28.292Z,12.79
2022-12-26T06:26:54.610Z,12.77
2022-12-26T06:29:21.072Z,12.85
2022-12-26T06:31:47.483Z,13.29
2022-12-26T06:34:13.917Z,13.02
2022-12-26T06:36:40.334Z,13.01
2022-12-26T06:39:06.655Z,12.94
2022-12-26T06:41:33.024Z,13.30
2022-12-26T06:43:59.353Z,12.93
2022-12-26T06:46:27.186Z,12.65
2022-12-26T06:48:54.165Z,12.85
2022-12-26T06:51:23.236Z,13.24
2022-12-26T06:53:50.661Z,12.86
2022-12-26T06:56:20.862Z,12.81
2022-12-26T06:58:47.720Z,12.46
2022-12-26T07:01:17.514Z,12.87
2022-12-26T07:03:51.242Z,12.44
2022-12-26T07:06:30.853Z,13.01
2022-12-26T07:09:00.012Z,12.79
2022-12-26T07:11:29.464Z,13.14
2022-12-26T07:13:56.612Z,13.38
2022-12-26T07:16:24.016Z,13.03
2022-12-26T07:18:54.849Z,13.06
2022-12-26T07:21:22.219Z,13.03
2022-12-26T07:23:48.987Z,12.97
2022-12-26T07:26:15.641Z,12.82
2022-12-26T07:28:42.330Z,13.13
2022-12-26T07:31:09.103Z,13.09
2022-12-26T07:33:35.597Z,12.95
2022-12-26T07:36:06.459Z,12.79
2022-12-26T07:38:33.524Z,12.58
2022-12-26T07:41:00.376Z,12.99
2022-12-26T07:43:26.836Z,12.59
2022-12-26T07:45:53.336Z,12.82
2022-12-26T07:48:19.803Z,12.80
2022-12-26T07:50:46.098Z,12.82
2022-12-26T07:53:13.881Z,12.86
2022-12-26T07:55:40.728Z,12.51
2022-12-26T07:58:07.320Z,12.96
2022-12-26T08:00:33.839Z,12.68
2022-12-26T08:03:06.915Z,12.60
2022-12-26T08:05:34.305Z,12.28
2022-12-26T08:08:00.803Z,12.19
2022-12-26T08:10:27.149Z,11.82
2022-12-26T08:12:53.570Z,11.82
2022-12-26T08:15:19.881Z,12.06
2022-12-26T08:17:46.313Z,12.26
2022-12-26T08:20:12.692Z,12.15
2022-12-26T08:22:39.218Z,12.17
2022-12-26T08:25:06.383Z,12.15
2022-12-26T08:27:33.715Z,12.36
2022-12-26T08:30:00.109Z,12.19
2022-12-26T08:32:26.571Z,12.43
2022-12-26T08:34:53.204Z,12.33
2022-12-26T08:37:19.527Z,12.40
2022-12-26T08:39:45.850Z,12.25
2022-12-26T08:42:12.230Z,12.07
2022-12-26T08:44:38.654Z,12.14
2022-12-26T08:47:04.962Z,12.11
2022-12-26T08:49:31.348Z,12.43
2022-12-26T08:51:57.652Z,12.63
2022-12-26T08:54:24.045Z,12.67
2022-12-26T08:56:50.360Z,12.47
2022-12-26T08:59:17.030Z,12.34
2022-12-26T09:01:43.473Z,12.76
2022-12-26T09:04:09.988Z,12.61
2022-12-26T09:06:38.684Z,12.82
2022-12-26T09:09:06.458Z,12.54
2022-12-26T09:11:33.267Z,12.68
2022-12-26T09:14:02.448Z,12.86
2022-12-26T09:16:37.496Z,12.99
2022-12-26T09:19:06.217Z,12.70
2022-12-26T09:21:33.019Z,12.57
2022-12-26T09:24:02.036Z,12.51
2022-12-26T09:26:29.202Z,12.54
2022-12-26T09:28:56.054Z,12.33
2022-12-26T09:31:24.521Z,12.07
2022-12-26T09:33:51.594Z,12.03
2022-12-26T09:36:21.008Z,11.86
2022-12-26T09:38:48.920Z,11.38
2022-12-26T09:41:50.955Z,11.02
2022-12-26T09:44:38.896Z,10.88
2022-12-26T09:47:41.047Z,10.85
2022-12-26T09:50:14.867Z,10.77
2022-12-26T09:52:55.669Z,10.48
2022-12-26T09:55:34.760Z,10.56
2022-12-26T09:58:08.602Z,10.35
2022-12-26T10:00:54.686Z,10.17
2022-12-26T10:03:22.980Z,10.14
2022-12-26T10:06:31.051Z,10.04
2022-12-26T10:09:04.639Z,9.97
2022-12-26T10:12:04.936Z,10.03
2022-12-26T10:14:52.886Z,9.95
2022-12-26T10:17:42.370Z,10.02
2022-12-26T10:20:24.658Z,9.94
2022-12-26T10:23:12.415Z,10.08
2022-12-26T10:25:57.084Z,9.92
2022-12-26T10:28:28.168Z,9.95
2022-12-26T10:30:58.665Z,10.05
2022-12-26T10:33:40.378Z,10.25
2022-12-26T10:36:16.718Z,10.00
2022-12-26T10:38:48.057Z,10.36
2022-12-26T10:41:25.253Z,10.02
2022-12-26T10:43:52.475Z,9.94
2022-12-26T10:46:41.374Z,9.79
2022-12-26T10:49:12.116Z,9.73
2022-12-26T10:51:39.026Z,9.73
2022-12-26T10:54:14.138Z,9.77
2022-12-26T10:56:40.634Z,9.89
2022-12-26T10:59:15.781Z,9.80
2022-12-26T11:01:42.662Z,9.81
2022-12-26T11:04:44.550Z,9.92
2022-12-26T11:07:12.069Z,10.12
2022-12-26T11:09:42.288Z,10.12
2022-12-26T11:12:25.111Z,10.22
2022-12-26T11:14:59.018Z,10.20
2022-12-26T11:17:29.900Z,10.12
2022-12-26T11:20:10.219Z,10.10
2022-12-26T11:22:36.644Z,10.14
2022-12-26T11:25:18.816Z,10.13
2022-12-26T11:27:48.694Z,10.45
2022-12-26T11:30:17.167Z,10.27
2022-12-26T11:32:47.169Z,10.16
2022-12-26T11:35:22.708Z,10.32
2022-12-26T11:37:56.307Z,10.97
2022-12-26T11:40:34.656Z,10.63
2022-12-26T11:43:05.276Z,10.49
2022-12-26T11:45:38.970Z,10.49
2022-12-26T11:48:17.215Z,10.30
2022-12-26T11:50:45.967Z,10.54
2022-12-26T11:53:17.556Z,10.54
2022-12-26T11:55:44.167Z,10.53
2022-12-26T11:58:10.509Z,10.45
2022-12-26T12:00:43.138Z,10.34
2022-12-26T12:03:34.807Z,10.51
2022-12-26T12:06:26.949Z,10.62
2022-12-26T12:09:05.964Z,10.73
2022-12-26T12:11:55.208Z,10.62
2022-12-26T12:14:54.574Z,10.56
2022-12-26T12:17:31.678Z,10.58
2022-12-26T12:20:21.987Z,10.69
2022-12-26T12:22:57.535Z,10.73
2022-12-26T12:25:49.703Z,10.87
2022-12-26T12:28:33.744Z,10.95
2022-12-26T12:31:17.347Z,11.46
2022-12-26T12:34:16.281Z,11.41
2022-12-26T12:37:11.236Z,11.12
2022-12-26T12:39:59.388Z,11.22
2022-12-26T12:42:44.190Z,11.31
2022-12-26T12:45:23.812Z,11.25
2022-12-26T12:48:07.516Z,11.34
2022-12-26T12:50:56.984Z,11.22
2022-12-26T12:53:44.798Z,11.30
2022-12-26T12:56:28.015Z,11.12
2022-12-26T12:59:14.462Z,11.17
2022-12-26T13:01:49.097Z,11.29
2022-12-26T13:04:25.132Z,11.34
2022-12-26T13:06:56.333Z,11.35
2022-12-26T13:09:30.501Z,11.27
2022-12-26T13:12:09.122Z,11.85
2022-12-26T13:14:43.942Z,11.79
2022-12-26T13:17:17.093Z,11.82
2022-12-26T13:20:04.303Z,11.95
2022-12-26T13:22:38.503Z,11.90
2022-12-26T13:25:05.041Z,12.10
2022-12-26T13:27:36.324Z,12.19
2022-12-26T13:30:16.501Z,12.34
2022-12-26T13:32:46.789Z,11.77
2022-12-26T13:35:51.187Z,11.52
2022-12-26T13:38:18.372Z,11.87
2022-12-26T13:40:53.912Z,12.20
2022-12-26T13:43:22.330Z,12.04
2022-12-26T13:46:30.080Z,11.78
2022-12-26T13:48:59.704Z,12.04
2022-12-26T13:51:43.082Z,11.78
2022-12-26T13:54:12.470Z,11.58
2022-12-26T13:56:45.843Z,11.75
2022-12-26T13:59:29.016Z,11.91
2022-12-26T14:02:07.245Z,11.65
2022-12-26T14:05:05.337Z,11.44
2022-12-26T14:07:54.252Z,11.53
2022-12-26T14:10:53.479Z,11.62
2022-12-26T14:13:32.578Z,11.99
2022-12-26T14:16:10.734Z,11.96
2022-12-26T14:18:51.369Z,11.56
2022-12-26T14:21:43.460Z,11.64
2022-12-26T14:24:12.582Z,11.37
2022-12-26T14:27:26.363Z,11.25
2022-12-26T14:30:17.245Z,11.53
2022-12-26T14:33:06.933Z,11.74
2022-12-26T14:35:46.209Z,11.72
2022-12-26T14:38:27.809Z,11.62
2022-12-26T14:41:00.642Z,11.37
2022-12-26T14:43:39.864Z,11.35
2022-12-26T14:46:32.730Z,11.37
2022-12-26T14:49:17.170Z,11.19
2022-12-26T14:51:44.325Z,11.45
2022-12-26T14:54:27.139Z,11.19
2022-12-26T14:56:53.900Z,10.94
2022-12-26T14:59:34.389Z,10.87
2022-12-26T15:02:16.136Z,11.01
2022-12-26T15:05:03.383Z,11.26
2022-12-26T15:08:04.007Z,10.86
2022-12-26T15:10:57.172Z,10.71
2022-12-26T15:13:34.047Z,10.93
2022-12-26T15:16:29.887Z,10.72
2022-12-26T15:19:34.791Z,10.71
2022-12-26T15:22:38.432Z,10.98
2022-12-26T15:25:26.400Z,11.04
2022-12-26T15:27:58.684Z,10.78
2022-12-26T15:30:34.104Z,11.01
2022-12-26T15:33:08.068Z,11.29
2022-12-26T15:35:50.787Z,11.22
2022-12-26T15:38:34.029Z,11.19
2022-12-26T15:41:31.143Z,11.17
2022-12-26T15:44:07.706Z,10.85
2022-12-26T15:46:42.000Z,10.76
2022-12-26T15:49:39.205Z,10.65
2022-12-26T15:52:20.155Z,10.99
2022-12-26T15:55:12.720Z,10.80
2022-12-26T15:57:44.288Z,10.82
2022-12-26T16:00:22.362Z,10.71
2022-12-26T16:03:16.805Z,11.08
2022-12-26T16:05:55.972Z,10.71
2022-12-26T16:08:48.084Z,10.61
2022-12-26T16:11:28.986Z,10.72
2022-12-26T16:14:01.754Z,10.72
2022-12-26T16:16:36.656Z,10.50
2022-12-26T16:19:17.500Z,10.37
2022-12-26T16:21:47.752Z,10.67
2022-12-26T16:24:18.606Z,10.86
2022-12-26T16:26:46.832Z,10.82
2022-12-26T16:29:20.211Z,10.72
2022-12-26T16:31:47.503Z,10.74
2022-12-26T16:34:18.237Z,10.94
2022-12-26T16:36:45.862Z,10.82
2022-12-26T16:39:13.149Z,10.56
2022-12-26T16:42:01.112Z,10.70
2022-12-26T16:44:31.187Z,11.07
2022-12-26T16:47:07.514Z,11.08
2022-12-26T16:49:35.102Z,10.97
2022-12-26T16:52:01.420Z,11.19
2022-12-26T16:54:35.873Z,11.08
2022-12-26T16:57:07.037Z,11.14
2022-12-26T16:59:50.765Z,11.05
2022-12-26T17:02:25.150Z,11.31
2022-12-26T17:04:58.542Z,11.13
2022-12-26T17:07:25.948Z,10.88
2022-12-26T17:09:56.785Z,10.57
2022-12-26T17:12:35.410Z,10.32
2022-12-26T17:15:04.093Z,10.02
2022-12-26T17:17:34.242Z,9.91
2022-12-26T17:20:33.191Z,9.95
2022-12-26T17:22:59.629Z,9.83
2022-12-26T17:25:33.311Z,9.57
2022-12-26T17:28:08.824Z,9.33
2022-12-26T17:30:42.768Z,9.31
2022-12-26T17:33:14.362Z,9.06
2022-12-26T17:36:44.824Z,8.81
2022-12-26T17:38:34.236Z,8.82
2022-12-26T17:41:03.433Z,8.86
2022-12-26T17:43:33.800Z,8.96
2022-12-26T17:46:01.203Z,8.73
2022-12-26T17:48:27.650Z,8.59
2022-12-26T17:50:57.366Z,8.64
2022-12-26T17:53:32.099Z,8.55
2022-12-26T17:56:01.663Z,8.71
2022-12-26T17:58:28.914Z,8.64
2022-12-26T18:00:55.714Z,8.62
2022-12-26T18:03:22.180Z,8.84
2022-12-26T18:05:48.760Z,8.84
2022-12-26T18:08:39.830Z,8.73
2022-12-26T18:11:09.270Z,8.70
2022-12-26T18:13:36.079Z,8.57
2022-12-26T18:16:03.875Z,8.56
2022-12-26T18:18:38.379Z,8.56
2022-12-26T18:21:07.479Z,8.52
2022-12-26T18:23:34.173Z,8.43
2022-12-26T18:26:03.316Z,8.58
2022-12-26T18:28:29.943Z,8.53
2022-12-26T18:30:56.534Z,8.50
2022-12-26T18:33:22.944Z,8.53
2022-12-26T18:35:49.796Z,8.63
2022-12-26T18:38:18.375Z,8.66
2022-12-26T18:40:47.670Z,8.58
2022-12-26T18:43:14.484Z,8.68
2022-12-26T18:45:42.432Z,8.60
2022-12-26T18:48:13.280Z,8.57
2022-12-26T18:50:39.648Z,8.48
2022-12-26T18:53:06.145Z,8.49
2022-12-26T18:55:32.665Z,8.59
2022-12-26T18:57:59.173Z,8.63
2022-12-26T19:00:26.582Z,8.66
2022-12-26T19:02:53.477Z,8.57
2022-12-26T19:05:26.709Z,8.56
2022-12-26T19:07:54.081Z,8.53
2022-12-26T19:10:23.115Z,8.69
2022-12-26T19:12:49.885Z,8.58
2022-12-26T19:15:16.274Z,8.59
2022-12-26T19:17:42.925Z,8.54
2022-12-26T19:20:16.551Z,8.61
2022-12-26T19:22:42.906Z,8.64
2022-12-26T19:25:09.440Z,8.82
2022-12-26T19:27:35.988Z,8.97
2022-12-26T19:30:02.318Z,9.06
2022-12-26T19:32:28.855Z,8.76
2022-12-26T19:34:55.174Z,8.53
2022-12-26T19:37:23.209Z,8.51
2022-12-26T19:39:49.527Z,8.56
2022-12-26T19:42:16.577Z,8.41
2022-12-26T19:44:43.056Z,8.34
2022-12-26T19:47:11.415Z,8.35
2022-12-26T19:49:39.273Z,8.26
2022-12-26T19:52:05.587Z,8.31
2022-12-26T19:54:31.971Z,8.14
2022-12-26T19:56:58.357Z,8.00
2022-12-26T19:59:24.646Z,7.83
2022-12-26T20:01:51.182Z,7.71
2022-12-26T20:04:18.041Z,7.67
2022-12-26T20:06:44.502Z,7.69
2022-12-26T20:09:13.570Z,7.62
2022-12-26T20:11:46.307Z,7.56
2022-12-26T20:14:16.316Z,7.57
2022-12-26T20:19:29.437Z,7.46
2022-12-26T20:21:55.723Z,7.45
2022-12-26T20:24:22.076Z,7.53
2022-12-26T20:26:49.934Z,7.67
2022-12-26T20:29:16.877Z,7.67
2022-12-26T20:31:43.932Z,7.86
2022-12-26T20:34:10.936Z,7.68
2022-12-26T20:36:37.725Z,7.55
2022-12-26T20:39:07.490Z,7.62
2022-12-26T20:41:34.336Z,7.60
2022-12-26T20:44:01.038Z,7.48
2022-12-26T20:46:30.582Z,7.57
2022-12-26T20:48:56.939Z,7.39
2022-12-26T20:51:29.054Z,7.38
2022-12-26T20:54:00.028Z,7.57
2022-12-26T20:56:26.653Z,7.47
2022-12-26T20:58:53.055Z,7.54
2022-12-26T21:01:22.057Z,7.46
2022-12-26T21:03:51.307Z,7.73
2022-12-26T21:06:20.490Z,7.83
2022-12-26T21:08:49.099Z,7.46
2022-12-26T21:11:21.262Z,7.39
2022-12-26T21:13:48.804Z,7.28
2022-12-26T21:16:19.760Z,7.10
2022-12-26T21:18:46.926Z,7.03
2022-12-26T21:21:16.617Z,7.11
2022-12-26T21:23:43.042Z,7.09
2022-12-26T21:26:09.879Z,6.91
2022-12-26T21:28:37.114Z,6.90
2022-12-26T21:31:03.891Z,6.81
2022-12-26T21:33:30.820Z,6.77
2022-12-26T21:35:57.748Z,6.72
2022-12-26T21:38:28.219Z,6.74
2022-12-26T21:40:55.299Z,6.88
2022-12-26T21:43:21.914Z,6.75
2022-12-26T21:45:48.433Z,6.77
2022-12-26T21:48:14.999Z,6.69
2022-12-26T21:50:44.985Z,6.58
2022-12-26T21:53:11.295Z,6.50
2022-12-26T21:55:37.672Z,6.44
2022-12-26T21:58:04.193Z,6.71
2022-12-26T22:00:31.509Z,6.86
2022-12-26T22:02:57.933Z,6.84
2022-12-26T22:05:27.778Z,7.20
2022-12-26T22:07:56.350Z,7.37
2022-12-26T22:10:24.818Z,7.24
2022-12-26T22:12:51.113Z,7.25
2022-12-26T22:15:17.523Z,6.98
2022-12-26T22:17:43.818Z,6.82
2022-12-26T22:20:10.141Z,6.82
2022-12-26T22:22:36.682Z,6.60
2022-12-26T22:25:02.996Z,6.47
2022-12-26T22:27:29.395Z,6.18
2022-12-26T22:29:55.720Z,6.00
2022-12-26T22:32:22.018Z,6.24
2022-12-26T22:34:48.405Z,6.16
2022-12-26T22:37:14.788Z,5.92
2022-12-26T22:39:41.313Z,5.77
2022-12-26T22:42:07.627Z,5.67
2022-12-26T22:44:33.915Z,5.69
2022-12-26T22:47:00.339Z,5.76
2022-12-26T22:49:26.704Z,5.58
2022-12-26T22:51:53.068Z,5.29
2022-12-26T22:54:19.422Z,5.16
2022-12-26T22:56:45.730Z,5.04
2022-12-26T22:59:27.433Z,5.09
2022-12-26T23:01:59.062Z,5.18
2022-12-26T23:04:25.693Z,4.97
2022-12-26T23:06:52.237Z,4.88
2022-12-26T23:09:18.642Z,4.71
2022-12-26T23:11:45.182Z,4.68
2022-12-26T23:14:12.645Z,4.69
2022-12-26T23:16:50.404Z,4.61
2022-12-26T23:19:16.633Z,4.55
2022-12-26T23:21:45.184Z,4.42
2022-12-26T23:24:25.248Z,4.38
2022-12-26T23:26:54.151Z,4.32
2022-12-26T23:29:22.550Z,4.18
2022-12-26T23:31:49.202Z,4.24
2022-12-26T23:34:15.733Z,4.21
2022-12-26T23:36:42.136Z,4.15
2022-12-26T23:39:08.568Z,4.14
2022-12-26T23:41:34.975Z,4.24
2022-12-26T23:44:01.542Z,4.24
2022-12-26T23:46:27.880Z,4.19
2022-12-26T23:48:54.298Z,4.09
2022-12-26T23:51:20.616Z,4.02
2022-12-26T23:53:46.944Z,4.04
2022-12-26T23:56:13.368Z,4.00
2022-12-26T23:58:39.678Z,4.15
